schweizer-illustrierte.ch alexa rank chart, schweizer-illustrierte.ch alexa rank daily changes

schweizer-illustrierte.ch alexa rank chart, schweizer-illustrierte.ch alexa rank daily changes

schweizer-illustrierte.ch
Actual rank:
73 620

RANK HISTORY

Date Rank Diff
2018/05/28 73 620 -47 774
2018/05/27 121 394 +39 715
2018/05/26 81 679 -3 272
2018/05/25 84 951 -32 758
2018/05/24 117 709 +78 618
2018/05/23 39 091 +1 072
2018/05/22 38 019 -15 169
2018/05/21 53 188 -8 032
2018/05/20 61 220 -10 256
2018/05/19 71 476 -68 878
2018/05/18 140 354 +59 262
2018/05/17 81 092 -16 252
2018/05/16 97 344 +28 737
2018/05/15 68 607 -5 360
2018/05/14 73 967 +4 181
2018/05/13 69 786 -28 080
2018/05/12 97 866 +35 745
2018/05/11 62 121 -98 313
2018/05/10 160 434 +78 836
2018/05/09 81 598 -19 237
2018/05/08 100 835 +25 986
2018/05/07 74 849 -14 434
2018/05/06 89 283 -64 979
2018/05/05 154 262 +66 033
2018/05/04 88 229 +7 212
2018/05/03 81 017 -45 073
2018/05/02 126 090 +58 667
2018/05/01 67 423 -33 144
2018/04/30 100 567 -18 748
2018/04/29 119 315 +45 040
2018/04/28 74 275 -12 976
2018/04/27 87 251 -11 057
2018/04/26 98 308 +9 570
2018/04/25 88 738 +3 402
2018/04/24 85 336 -1 915
2018/04/23 87 251 +13 026
2018/04/22 74 225 -51 697
2018/04/21 125 922 -4 368
2018/04/20 130 290 +53 697
2018/04/19 76 593 -1 615
2018/04/18 78 208 -18 070
2018/04/17 96 278 +32 745
2018/04/16 63 533 -8 419
2018/04/15 71 952 -27 700
2018/04/14 99 652 +25 492
2018/04/13 74 160 -72 203
2018/04/12 146 363 -62
2018/04/11 146 425 +20 010
2018/04/10 126 415 -28 617
2018/04/09 155 032 +40 492
2018/04/08 114 540 -81 176
2018/04/07 195 716 +71 102
2018/04/06 124 614 -69 801
2018/04/05 194 415 +93 467
2018/04/04 100 948 +55 481
2018/04/03 45 467 -46 401
2018/04/02 91 868 +31 756
2018/04/01 60 112 -33 328
2018/03/31 93 440 +29 542
2018/03/30 63 898 -72 041
2018/03/29 135 939

WIDGET FOR YOUR SITE

DOMAINS WITH THE NEAREST RANK

Domain Rank
third-film.org 73 615
yourfiles.space 73 616
boerse-online.de 73 617
hr-fernsehen.de 73 618
madehow.com 73 619
schweizer-illustrierte.ch 73 620
penpalworld.com 73 621
pholder.com 73 622
python-requests.org 73 623
getfbstuff.com 73 624
respublica.co.za 73 625

DOMAINS WITH THE NEAREST RANK BY TLD .ch

Domain Rank
tagblatt.ch 71 974
refline.ch 72 308
zvv.ch 72 477
cdt.ch 72 478
tcs.ch 73 459
schweizer-illustrierte.ch 73 620
coopathome.ch 77 418
cede.ch 79 427
cash.ch 79 866
jobscout24.ch 80 016
transfermarkt.ch 80 021